This is the latest recevied weather packets stored in our database for station/object W8MRL. If no packets are shown the sender has not sent any weather packets the latest 10 day(s).
| Time | Temp. | Humidity | Pressure | Rain* | Wind** | Luminosity | Snow |
|---|---|---|---|---|---|---|---|
| 1777615269 | 6.11° C | 91% | 1018.4 hPa | 0 mm | - | - | - |
| 1777614350 | 6.11° C | 91% | 1018.5 hPa | 0 mm | - | - | - |
| 1777613448 | 6.11° C | 90% | 1018.5 hPa | 0 mm | - | - | - |
| 1777612547 | 6.67° C | 90% | 1018.5 hPa | 0 mm | - | - | - |
| 1777611644 | 6.11° C | 90% | 1018.8 hPa | 0 mm | - | - | - |
| 1777610741 | 6.11° C | 90% | 1018.8 hPa | 0 mm | - | - | - |
| 1777609843 | 6.67° C | 90% | 1018.9 hPa | 0 mm | - | - | - |
| 1777608940 | 6.67° C | 88% | 1018.9 hPa | 0 mm | - | - | - |
| 1777608036 | 6.67° C | 87% | 1019 hPa | 0 mm | - | - | - |
| 1777607138 | 6.67° C | 85% | 1019 hPa | 0 mm | - | - | - |
| 1777606235 | 7.22° C | 85% | 1019 hPa | 0 mm | - | - | - |
| 1777605335 | 6.67° C | 84% | 1019.4 hPa | 0 mm | - | - | - |
| 1777604433 | 6.67° C | 85% | 1019.5 hPa | 0 mm | - | - | - |
| 1777603534 | 6.67° C | 85% | 1019.7 hPa | 0 mm | - | - | - |
| 1777602633 | 7.22° C | 85% | 1019.7 hPa | 0 mm | - | - | - |
| 1777601742 | 7.22° C | 85% | 1019.6 hPa | 0 mm | - | - | - |
| 1777600831 | 7.22° C | 83% | 1019.5 hPa | 0 mm | - | - | - |
| 1777599932 | 7.78° C | 80% | 1019.4 hPa | 0 mm | - | - | - |
| 1777599030 | 7.78° C | 80% | 1019.1 hPa | 0 mm | - | - | - |
| 1777598130 | 8.33° C | 80% | 1019.2 hPa | 0 mm | - | - | - |
| 1777597229 | 8.89° C | 76% | 1019.1 hPa | 0 mm | - | - | - |
| 1777596329 | 10° C | 74% | 1019.1 hPa | 0 mm | - | - | - |
| 1777595431 | 11.11° C | 67% | 1019.1 hPa | 0 mm | - | - | - |
| 1777594528 | 12.22° C | 60% | 1019 hPa | 0 mm | - | - | - |
| 1777593633 | 13.33° C | 58% | 1019 hPa | 0 mm | - | - | - |
* Rain latest hour (hover to see other rain measurements)
** Current wind speed in m/s (hover to see current wind gust speed)